Observation data for Aspermont on 06/15/2019      Previous  Date  Next       Current Mesonet Observations  Soil Data  Daily Summary Page  Observations in Plain Language
KASR 150500Z 18012KT 27/18 A2979 RMK A01 T02650182  RH  062%=      5-min Rain = 0
KASR 150505Z 18012G17KT 26/18 A2979 RMK A01 T02640182  RH  062%=      5-min Rain = 0
KASR 150510Z 19011G17KT 26/18 A2979 RMK A01 T02620181  RH  063%=      5-min Rain = 0
KASR 150515Z 19011KT 26/18 A2979 RMK A01 T02620181  RH  063%=      5-min Rain = 0
KASR 150520Z 19009KT 26/18 A2979 RMK A01 T02600181  RH  063%=      5-min Rain = 0
KASR 150525Z 19010KT 26/18 A2979 RMK A01 T02600180  RH  063%=      5-min Rain = 0
KASR 150530Z 19009KT 26/18 A2979 RMK A01 T02590180  RH  063%=      5-min Rain = 0
KASR 150535Z 19010KT 26/18 A298 RMK A01 T02590180  RH  063%=      5-min Rain = 0
KASR 150540Z 19010KT 26/18 A298 RMK A01 T02580180  RH  064%=      5-min Rain = 0
KASR 150545Z 19010KT 26/18 A298 RMK A01 T02570180  RH  064%=      5-min Rain = 0
KASR 150550Z 19010G15KT 26/18 A298 RMK A01 T02570180  RH  064%=      5-min Rain = 0
KASR 150555Z 19009KT 26/18 A2981 RMK A01 T02570180  RH  064%=      5-min Rain = 0
KASR 150600Z 19009KT 26/18 A2981 RMK A01 T02560180  RH  064%=      5-min Rain = 0
KASR 150605Z 19009KT 26/18 A2981 RMK A01 T02550180  RH  065%=      5-min Rain = 0
KASR 150610Z 19010G15KT 26/18 A2981 RMK A01 T02550179  RH  064%=      5-min Rain = 0
KASR 150615Z 18010KT 26/18 A2981 RMK A01 T02560179  RH  064%=      5-min Rain = 0
KASR 150620Z 18011KT 26/18 A298 RMK A01 T02570179  RH  064%=      5-min Rain = 0
KASR 150625Z 18012KT 26/18 A298 RMK A01 T02580178  RH  063%=      5-min Rain = 0
KASR 150630Z 18012KT 26/18 A2979 RMK A01 T02590178  RH  062%=      5-min Rain = 0
KASR 150635Z 18012KT 26/18 A2979 RMK A01 T02590178  RH  063%=      5-min Rain = 0
KASR 150640Z 18012KT 26/18 A2979 RMK A01 T02590178  RH  062%=      5-min Rain = 0
KASR 150645Z 18013KT 26/18 A2979 RMK A01 T02600177  RH  062%=      5-min Rain = 0
KASR 150650Z 18011G16KT 26/18 A2979 RMK A01 T02600177  RH  062%=      5-min Rain = 0
KASR 150655Z 19011G17KT 26/18 A2979 RMK A01 T02590177  RH  062%=      5-min Rain = 0
KASR 150700Z 19011G17KT 26/18 A2979 RMK A01 T02600176  RH  061%=      5-min Rain = 0
KASR 150705Z 19010KT 26/18 A298 RMK A01 T02610176  RH  061%=      5-min Rain = 0
KASR 150710Z 19009G14KT 26/18 A298 RMK A01 T02610176  RH  061%=      5-min Rain = 0
KASR 150715Z 19007G12KT 26/18 A298 RMK A01 T02600176  RH  061%=      5-min Rain = 0
KASR 150720Z 19007G12KT 26/18 A298 RMK A01 T02590176  RH  062%=      5-min Rain = 0
KASR 150725Z 19007G13KT 26/18 A298 RMK A01 T02600176  RH  061%=      5-min Rain = 0
KASR 150730Z 19007KT 26/18 A298 RMK A01 T02600175  RH  061%=      5-min Rain = 0
KASR 150735Z 20006G12KT 26/18 A298 RMK A01 T02610175  RH  060%=      5-min Rain = 0
KASR 150740Z 20006KT 26/18 A298 RMK A01 T02590175  RH  061%=      5-min Rain = 0
KASR 150745Z 20005KT 26/18 A298 RMK A01 T02580175  RH  062%=      5-min Rain = 0
KASR 150750Z 17004KT 26/18 A298 RMK A01 T02550175  RH  063%=      5-min Rain = 0
KASR 150755Z 18003KT 25/17 A2979 RMK A01 T02540174  RH  063%=      5-min Rain = 0
KASR 150800Z 19005KT 26/17 A298 RMK A01 T02550174  RH  063%=      5-min Rain = 0
KASR 150805Z 18006KT 25/18 A2979 RMK A01 T02530175  RH  063%=      5-min Rain = 0
KASR 150810Z 18005KT 25/18 A2979 RMK A01 T02500175  RH  065%=      5-min Rain = 0
KASR 150815Z 19006KT 25/18 A2979 RMK A01 T02450175  RH  067%=      5-min Rain = 0
KASR 150820Z 18008KT 25/18 A2979 RMK A01 T02470175  RH  066%=      5-min Rain = 0
KASR 150825Z 18008KT 25/18 A2979 RMK A01 T02460175  RH  066%=      5-min Rain = 0
KASR 150830Z 18009KT 25/18 A2978 RMK A01 T02450175  RH  067%=      5-min Rain = 0
KASR 150835Z 18010KT 24/18 A2978 RMK A01 T02430175  RH  067%=      5-min Rain = 0
KASR 150840Z 19010KT 24/18 A2978 RMK A01 T02420175  RH  068%=      5-min Rain = 0
KASR 150845Z 18011KT 24/18 A2977 RMK A01 T02410175  RH  068%=      5-min Rain = 0
KASR 150850Z 18011KT 24/18 A2977 RMK A01 T02400175  RH  069%=      5-min Rain = 0
KASR 150855Z 18011KT 24/18 A2977 RMK A01 T02410175  RH  068%=      5-min Rain = 0
KASR 150900Z 18011KT 24/18 A2977 RMK A01 T02400175  RH  069%=      5-min Rain = 0
KASR 150905Z 17011KT 24/18 A2976 RMK A01 T02390175  RH  069%=      5-min Rain = 0
KASR 150910Z 18011KT 24/18 A2976 RMK A01 T02380175  RH  069%=      5-min Rain = 0
KASR 150915Z 17010KT 24/18 A2976 RMK A01 T02370175  RH  070%=      5-min Rain = 0
KASR 150920Z 17010KT 24/18 A2976 RMK A01 T02370175  RH  070%=      5-min Rain = 0
KASR 150925Z 17010KT 24/18 A2976 RMK A01 T02350175  RH  071%=      5-min Rain = 0
KASR 150930Z 18009KT 24/18 A2975 RMK A01 T02350175  RH  071%=      5-min Rain = 0
KASR 150935Z 18009KT 23/18 A2975 RMK A01 T02320175  RH  072%=      5-min Rain = 0
KASR 150940Z 18009KT 23/17 A2975 RMK A01 T02300174  RH  073%=      5-min Rain = 0
KASR 150945Z 18009KT 23/17 A2975 RMK A01 T02310174  RH  072%=      5-min Rain = 0
KASR 150950Z 18010KT 23/17 A2975 RMK A01 T02310174  RH  072%=      5-min Rain = 0
KASR 150955Z 17009KT 23/17 A2975 RMK A01 T02310174  RH  072%=      5-min Rain = 0
KASR 151000Z 17009KT 23/17 A2975 RMK A01 T02310173  RH  072%=      5-min Rain = 0
KASR 151005Z 17009KT 23/17 A2974 RMK A01 T02320173  RH  071%=      5-min Rain = 0
KASR 151010Z 17008KT 23/17 A2974 RMK A01 T02330173  RH  071%=      5-min Rain = 0
KASR 151015Z 17007KT 23/17 A2975 RMK A01 T02340173  RH  070%=      5-min Rain = 0
KASR 151020Z 17006KT 23/17 A2975 RMK A01 T02330173  RH  071%=      5-min Rain = 0
KASR 151025Z 18002KT 23/17 A2976 RMK A01 T02300173  RH  072%=      5-min Rain = 0
KASR 151030Z 29001KT 23/17 A2976 RMK A01 T02270172  RH  073%=      5-min Rain = 0
KASR 151035Z 32000KT 22/17 A2977 RMK A01 T02210172  RH  076%=      5-min Rain = 0
KASR 151040Z 16004KT 22/17 A2976 RMK A01 T02170172  RH  078%=      5-min Rain = 0
KASR 151045Z 17006KT 22/17 A2976 RMK A01 T02190172  RH  076%=      5-min Rain = 0
KASR 151050Z 17006KT 22/17 A2976 RMK A01 T02220172  RH  075%=      5-min Rain = 0
KASR 151055Z 17006KT 23/17 A2976 RMK A01 T02250172  RH  074%=      5-min Rain = 0
KASR 151100Z 17006KT 23/17 A2976 RMK A01 T02270172  RH  073%=      5-min Rain = 0
KASR 151105Z 17007KT 23/17 A2976 RMK A01 T02280173  RH  073%=      5-min Rain = 0
KASR 151110Z 18007KT 23/17 A2976 RMK A01 T02300173  RH  072%=      5-min Rain = 0
KASR 151115Z 16005KT 23/17 A2976 RMK A01 T02290173  RH  073%=      5-min Rain = 0
KASR 151120Z 15004KT 23/17 A2977 RMK A01 T02270174  RH  073%=      5-min Rain = 0
KASR 151125Z 14004KT 22/17 A2977 RMK A01 T02240173  RH  075%=      5-min Rain = 0
KASR 151130Z 12003KT 22/17 A2977 RMK A01 T02190173  RH  077%=      5-min Rain = 0
KASR 151135Z 12001KT 21/17 A2977 RMK A01 T02140172  RH  079%=      5-min Rain = 0
KASR 151140Z 14001KT 21/17 A2978 RMK A01 T02080172  RH  082%=      5-min Rain = 0
KASR 151145Z 15003KT 20/17 A2978 RMK A01 T02030172  RH  084%=      5-min Rain = 0
KASR 151150Z 16004KT 21/17 A2978 RMK A01 T02090174  RH  082%=      5-min Rain = 0
KASR 151155Z 16005KT 22/18 A2978 RMK A01 T02170176  RH  079%=      5-min Rain = 0
KASR 151200Z 16006KT 22/18 A2978 RMK A01 T02210177  RH  078%=      5-min Rain = 0
KASR 151205Z 16006KT 22/18 A2978 RMK A01 T02230178  RH  078%=      5-min Rain = 0
KASR 151210Z 17006KT 23/18 A2978 RMK A01 T02260179  RH  077%=      5-min Rain = 0
KASR 151215Z 17005G10KT 23/18 A2978 RMK A01 T02290180  RH  076%=      5-min Rain = 0
KASR 151220Z 17006KT 23/18 A2978 RMK A01 T02310181  RH  075%=      5-min Rain = 0
KASR 151225Z 17006KT 23/18 A2979 RMK A01 T02330182  RH  075%=      5-min Rain = 0
KASR 151230Z 18007KT 24/18 A2979 RMK A01 T02350182  RH  074%=      5-min Rain = 0
KASR 151235Z 18008KT 24/18 A2979 RMK A01 T02360183  RH  074%=      5-min Rain = 0
KASR 151240Z 18008G13KT 24/18 A2979 RMK A01 T02380184  RH  074%=      5-min Rain = 0
KASR 151245Z 18009KT 24/18 A2979 RMK A01 T02400184  RH  073%=      5-min Rain = 0
KASR 151250Z 18007KT 24/19 A2979 RMK A01 T02420186  RH  072%=      5-min Rain = 0
KASR 151255Z 18009KT 24/19 A2979 RMK A01 T02440185  RH  072%=      5-min Rain = 0
KASR 151300Z 18010KT 25/19 A2979 RMK A01 T02460185  RH  071%=      5-min Rain = 0
KASR 151305Z 18010KT 25/19 A2979 RMK A01 T02480186  RH  070%=      5-min Rain = 0
KASR 151310Z 18009G16KT 25/19 A2979 RMK A01 T02500187  RH  070%=      5-min Rain = 0
KASR 151315Z 18010KT 25/19 A2979 RMK A01 T02510189  RH  070%=      5-min Rain = 0
KASR 151320Z 18011KT 25/19 A2979 RMK A01 T02530188  RH  069%=      5-min Rain = 0
KASR 151325Z 19011G17KT 25/19 A2979 RMK A01 T02540188  RH  069%=      5-min Rain = 0
KASR 151330Z 18011KT 26/19 A2979 RMK A01 T02560188  RH  068%=      5-min Rain = 0
KASR 151335Z 18012KT 26/19 A2979 RMK A01 T02570189  RH  068%=      5-min Rain = 0
KASR 151340Z 18011G16KT 26/19 A2979 RMK A01 T02590190  RH  067%=      5-min Rain = 0
KASR 151345Z 18012G17KT 26/19 A2979 RMK A01 T02600189  RH  067%=      5-min Rain = 0
KASR 151350Z 19011G17KT 26/19 A2979 RMK A01 T02620190  RH  066%=      5-min Rain = 0
KASR 151355Z 19011G18KT 26/19 A2979 RMK A01 T02640191  RH  066%=      5-min Rain = 0
KASR 151400Z 19012G19KT 27/19 A2979 RMK A01 T02660191  RH  065%=      5-min Rain = 0
KASR 151405Z 18011G16KT 27/19 A2979 RMK A01 T02670192  RH  065%=      5-min Rain = 0
KASR 151410Z 18016G21KT 27/19 A298 RMK A01 T02670190  RH  064%=      5-min Rain = 0
KASR 151415Z 18014G19KT 27/19 A2979 RMK A01 T02690192  RH  064%=      5-min Rain = 0
KASR 151420Z 18014G19KT 27/19 A2979 RMK A01 T02710192  RH  064%=      5-min Rain = 0
KASR 151425Z 19013KT 27/19 A2979 RMK A01 T02720193  RH  063%=      5-min Rain = 0
KASR 151430Z 19011G17KT 28/20 A2979 RMK A01 T02760195  RH  063%=      5-min Rain = 0
KASR 151435Z 20014G20KT 28/19 A298 RMK A01 T02760190  RH  061%=      5-min Rain = 0
KASR 151440Z 20012G17KT 28/19 A298 RMK A01 T02780192  RH  061%=      5-min Rain = 0
KASR 151445Z 20013KT 28/19 A298 RMK A01 T02790191  RH  060%=      5-min Rain = 0
KASR 151450Z 19013G20KT 28/19 A298 RMK A01 T02820191  RH  059%=      5-min Rain = 0
KASR 151455Z 20013KT 28/19 A298 RMK A01 T02830188  RH  058%=      5-min Rain = 0
KASR 151500Z 19011G16KT 29/19 A298 RMK A01 T02850191  RH  058%=      5-min Rain = 0
KASR 151505Z 19013KT 29/19 A298 RMK A01 T02870191  RH  057%=      5-min Rain = 0
KASR 151510Z 19016G21KT 29/19 A2979 RMK A01 T02870187  RH  056%=      5-min Rain = 0
KASR 151515Z 20015G20KT 29/19 A2979 RMK A01 T02890187  RH  055%=      5-min Rain = 0
KASR 151520Z 19015G20KT 29/19 A2979 RMK A01 T02920188  RH  055%=      5-min Rain = 0
KASR 151525Z 20016G22KT 29/19 A2979 RMK A01 T02930187  RH  054%=      5-min Rain = 0
KASR 151530Z 20013G20KT 30/19 A2979 RMK A01 T02960188  RH  054%=      5-min Rain = 0
KASR 151535Z 20012G17KT 30/19 A2979 RMK A01 T02970186  RH  053%=      5-min Rain = 0
KASR 151540Z 19011KT 30/19 A2979 RMK A01 T03000190  RH  053%=      5-min Rain = 0
KASR 151545Z 20013KT 30/19 A2979 RMK A01 T03030188  RH  052%=      5-min Rain = 0
KASR 151550Z 20015G20KT 30/18 A2979 RMK A01 T03020182  RH  050%=      5-min Rain = 0
KASR 151555Z 20013G19KT 30/19 A2979 RMK A01 T03040186  RH  051%=      5-min Rain = 0
KASR 151600Z 20014G19KT 31/18 A2979 RMK A01 T03060184  RH  049%=      5-min Rain = 0
KASR 151605Z 20014G20KT 31/18 A2978 RMK A01 T03050183  RH  049%=      5-min Rain = 0
KASR 151610Z 21013G18KT 31/19 A2978 RMK A01 T03080185  RH  049%=      5-min Rain = 0
KASR 151615Z 20016G21KT 31/18 A2978 RMK A01 T03090184  RH  049%=      5-min Rain = 0
KASR 151620Z 20016G22KT 31/18 A2978 RMK A01 T03080183  RH  048%=      5-min Rain = 0
KASR 151625Z 20015KT 31/19 A2977 RMK A01 T03110186  RH  049%=      5-min Rain = 0
KASR 151630Z 20014G19KT 31/19 A2977 RMK A01 T03120187  RH  048%=      5-min Rain = 0
KASR 151635Z 20015KT 31/18 A2977 RMK A01 T03130183  RH  047%=      5-min Rain = 0
KASR 151640Z 19014G19KT 32/19 A2977 RMK A01 T03160186  RH  047%=      5-min Rain = 0
KASR 151645Z 19015G20KT 32/18 A2977 RMK A01 T03170184  RH  046%=      5-min Rain = 0
KASR 151650Z 20014G19KT 32/18 A2977 RMK A01 T03210183  RH  045%=      5-min Rain = 0
KASR 151655Z 21012G19KT 32/18 A2977 RMK A01 T03220182  RH  045%=      5-min Rain = 0
KASR 151700Z 20013G18KT 33/19 A2978 RMK A01 T03250185  RH  045%=      5-min Rain = 0
KASR 151705Z 20014G20KT 33/18 A2978 RMK A01 T03250180  RH  043%=      5-min Rain = 0
KASR 151710Z 20014KT 33/18 A2977 RMK A01 T03280178  RH  042%=      5-min Rain = 0
KASR 151715Z 21012G18KT 33/18 A2977 RMK A01 T03290176  RH  041%=      5-min Rain = 0
KASR 151720Z 22012G17KT 33/17 A2978 RMK A01 T03320174  RH  040%=      5-min Rain = 0
KASR 151725Z 22012KT 33/17 A2978 RMK A01 T03290170  RH  040%=      5-min Rain = 0
KASR 151730Z 21011KT 33/17 A2978 RMK A01 T03310169  RH  039%=      5-min Rain = 0
KASR 151735Z 22011KT 33/17 A2978 RMK A01 T03330168  RH  038%=      5-min Rain = 0
KASR 151740Z 21010KT 34/17 A2978 RMK A01 T03350168  RH  038%=      5-min Rain = 0
KASR 151745Z 23010G15KT 33/17 A2978 RMK A01 T03340165  RH  037%=      5-min Rain = 0
KASR 151750Z 23011G17KT 33/16 A2978 RMK A01 T03340162  RH  037%=      5-min Rain = 0
KASR 151755Z 22011KT 34/17 A2977 RMK A01 T03350165  RH  037%=      5-min Rain = 0
KASR 151800Z 23011G17KT 34/16 A2977 RMK A01 T03360161  RH  036%=      5-min Rain = 0
KASR 151805Z 22012G17KT 34/17 A2977 RMK A01 T03360168  RH  038%=      5-min Rain = 0
KASR 151810Z 21009KT 34/17 A2977 RMK A01 T03390170  RH  037%=      5-min Rain = 0
KASR 151815Z 22010G15KT 34/17 A2977 RMK A01 T03410169  RH  037%=      5-min Rain = 0
KASR 151820Z 23010G16KT 34/17 A2977 RMK A01 T03400167  RH  037%=      5-min Rain = 0
KASR 151825Z 23011G16KT 34/17 A2977 RMK A01 T03400167  RH  037%=      5-min Rain = 0
KASR 151830Z 20007G14KT 34/16 A2976 RMK A01 T03420163  RH  035%=      5-min Rain = 0
KASR 151835Z 20012G17KT 35/17 A2976 RMK A01 T03450166  RH  035%=      5-min Rain = 0
KASR 151840Z 21009G14KT 35/17 A2976 RMK A01 T03450168  RH  036%=      5-min Rain = 0
KASR 151845Z 21011G17KT 35/17 A2976 RMK A01 T03460165  RH  035%=      5-min Rain = 0
KASR 151850Z 19011KT 35/17 A2976 RMK A01 T03500170  RH  035%=      5-min Rain = 0
KASR 151855Z 22009G14KT 35/17 A2976 RMK A01 T03490169  RH  035%=      5-min Rain = 0
KASR 151900Z 21008G15KT 35/17 A2976 RMK A01 T03490169  RH  035%=      5-min Rain = 0
KASR 151905Z 20009G15KT 35/17 A2975 RMK A01 T03520169  RH  035%=      5-min Rain = 0
KASR 151910Z 20011KT 35/17 A2975 RMK A01 T03540167  RH  034%=      5-min Rain = 0
KASR 151915Z 22007G14KT 35/16 A2975 RMK A01 T03530164  RH  033%=      5-min Rain = 0
KASR 151920Z 20011G16KT 35/17 A2975 RMK A01 T03540166  RH  034%=      5-min Rain = 0
KASR 151925Z 19010G16KT 36/16 A2975 RMK A01 T03570164  RH  033%=      5-min Rain = 0
KASR 151930Z 20010G16KT 36/17 A2975 RMK A01 T03580165  RH  033%=      5-min Rain = 0
KASR 151935Z 19011G16KT 36/16 A2975 RMK A01 T03590162  RH  032%=      5-min Rain = 0
KASR 151940Z 19010KT 36/17 A2975 RMK A01 T03600168  RH  033%=      5-min Rain = 0
KASR 151945Z 18011KT 36/16 A2974 RMK A01 T03590161  RH  032%=      5-min Rain = 0
KASR 151950Z 19010G17KT 36/16 A2974 RMK A01 T03610164  RH  032%=      5-min Rain = 0
KASR 151955Z 21009KT 36/17 A2974 RMK A01 T03640166  RH  032%=      5-min Rain = 0
KASR 152000Z 19010KT 36/16 A2974 RMK A01 T03630163  RH  031%=      5-min Rain = 0
KASR 152005Z 19010KT 36/17 A2974 RMK A01 T03630169  RH  033%=      5-min Rain = 0
KASR 152010Z 18010G16KT 37/17 A2974 RMK A01 T03650173  RH  033%=      5-min Rain = 0
KASR 152015Z 18009KT 37/18 A2974 RMK A01 T03650175  RH  033%=      5-min Rain = 0
KASR 152020Z 17010G16KT 37/17 A2974 RMK A01 T03650173  RH  033%=      5-min Rain = 0
KASR 152025Z 18011G17KT 36/17 A2974 RMK A01 T03640173  RH  033%=      5-min Rain = 0
KASR 152030Z 17008G13KT 37/17 A2974 RMK A01 T03670172  RH  033%=      5-min Rain = 0
KASR 152035Z 18010G15KT 37/17 A2973 RMK A01 T03680173  RH  033%=      5-min Rain = 0
KASR 152040Z 17009G15KT 37/17 A2973 RMK A01 T03670171  RH  032%=      5-min Rain = 0
KASR 152045Z 18010G15KT 37/17 A2973 RMK A01 T03690172  RH  032%=      5-min Rain = 0
KASR 152050Z 17011KT 37/17 A2973 RMK A01 T03670167  RH  032%=      5-min Rain = 0
KASR 152055Z 19007KT 37/18 A2973 RMK A01 T03720177  RH  033%=      5-min Rain = 0
KASR 152100Z 18008G15KT 37/17 A2973 RMK A01 T03700173  RH  032%=      5-min Rain = 0
KASR 152105Z 17011KT 36/17 A2973 RMK A01 T03620167  RH  032%=      5-min Rain = 0
KASR 152110Z 17010KT 37/17 A2973 RMK A01 T03700172  RH  032%=      5-min Rain = 0
KASR 152115Z 17012KT 37/17 A2972 RMK A01 T03720172  RH  032%=      5-min Rain = 0
KASR 152120Z 16010G15KT 37/17 A2972 RMK A01 T03700170  RH  032%=      5-min Rain = 0
KASR 152125Z 16010G16KT 37/18 A2972 RMK A01 T03720176  RH  032%=      5-min Rain = 0
KASR 152130Z 16010KT 37/18 A2972 RMK A01 T03710176  RH  033%=      5-min Rain = 0
KASR 152135Z 15009KT 37/18 A2971 RMK A01 T03690176  RH  033%=      5-min Rain = 0
KASR 152140Z 17012G17KT 36/17 A2972 RMK A01 T03610172  RH  034%=      5-min Rain = 0
KASR 152145Z 16009G15KT 35/17 A2971 RMK A01 T03530172  RH  035%=      5-min Rain = 0
KASR 152150Z 15009KT 35/17 A2971 RMK A01 T03520174  RH  036%=      5-min Rain = 0
KASR 152155Z 14009KT 35/18 A2971 RMK A01 T03520180  RH  037%=      5-min Rain = 0
KASR 152200Z 15007G12KT 37/19 A2971 RMK A01 T03650193  RH  038%=      5-min Rain = 0
KASR 152205Z 14011G18KT 37/19 A2971 RMK A01 T03660186  RH  036%=      5-min Rain = 0
KASR 152210Z 15012G17KT 37/19 A2971 RMK A01 T03650186  RH  036%=      5-min Rain = 0
KASR 152215Z 15011G18KT 36/19 A2971 RMK A01 T03620189  RH  037%=      5-min Rain = 0
KASR 152220Z 16011KT 36/19 A2971 RMK A01 T03570187  RH  038%=      5-min Rain = 0
KASR 152225Z 15009KT 35/19 A2971 RMK A01 T03520194  RH  040%=      5-min Rain = 0
KASR 152230Z 15011G16KT 35/20 A297 RMK A01 T03490196  RH  042%=      5-min Rain = 0
KASR 152235Z 15010G15KT 35/20 A297 RMK A01 T03450199  RH  044%=      5-min Rain = 0
KASR 152240Z 14008KT 34/20 A297 RMK A01 T03430201  RH  045%=      5-min Rain = 0
KASR 152245Z 15008G13KT 34/20 A297 RMK A01 T03410202  RH  046%=      5-min Rain = 0
KASR 152250Z 14008G13KT 34/20 A2969 RMK A01 T03390204  RH  047%=      5-min Rain = 0
KASR 152255Z 13008KT 34/21 A2969 RMK A01 T03410208  RH  047%=      5-min Rain = 0
KASR 152300Z 15010G15KT 34/21 A2969 RMK A01 T03430209  RH  047%=      5-min Rain = 0
KASR 152305Z 14011KT 35/21 A2969 RMK A01 T03490211  RH  046%=      5-min Rain = 0
KASR 152310Z 15011G16KT 35/21 A2969 RMK A01 T03510210  RH  045%=      5-min Rain = 0
KASR 152315Z 15009KT 35/22 A2968 RMK A01 T03520215  RH  046%=      5-min Rain = 0
KASR 152320Z 15012G18KT 35/21 A2968 RMK A01 T03510213  RH  046%=      5-min Rain = 0
KASR 152325Z 15011G16KT 35/21 A2968 RMK A01 T03480211  RH  046%=      5-min Rain = 0
KASR 152330Z 15010G16KT 34/21 A2968 RMK A01 T03410210  RH  048%=      5-min Rain = 0
KASR 152335Z 15009G14KT 34/21 A2968 RMK A01 T03360208  RH  049%=      5-min Rain = 0
KASR 152340Z 16010G15KT 33/21 A2969 RMK A01 T03320206  RH  049%=      5-min Rain = 0
KASR 152345Z 16009KT 33/20 A2969 RMK A01 T03300203  RH  049%=      5-min Rain = 0
KASR 152350Z 16010G16KT 33/20 A2969 RMK A01 T03290202  RH  049%=      5-min Rain = 0
KASR 152355Z 16010G15KT 33/20 A297 RMK A01 T03280201  RH  049%=      5-min Rain = 0
KASR 160000Z 16010KT 33/20 A297 RMK A01 T03270200  RH  049%=      5-min Rain = 0
KASR 160005Z 17010KT 33/20 A297 RMK A01 T03260199  RH  049%=      5-min Rain = 0
KASR 160010Z 17010KT 33/20 A2971 RMK A01 T03250198  RH  048%=      5-min Rain = 0
KASR 160015Z 17011G19KT 33/20 A297 RMK A01 T03250198  RH  049%=      5-min Rain = 0
KASR 160020Z 16015G20KT 33/20 A297 RMK A01 T03260196  RH  048%=      5-min Rain = 0
KASR 160025Z 16014G19KT 33/20 A2969 RMK A01 T03270195  RH  047%=      5-min Rain = 0
KASR 160030Z 15013G18KT 33/20 A297 RMK A01 T03250196  RH  048%=      5-min Rain = 0
KASR 160035Z 16013KT 32/20 A2969 RMK A01 T03220197  RH  049%=      5-min Rain = 0
KASR 160040Z 16013G19KT 32/20 A2969 RMK A01 T03230196  RH  048%=      5-min Rain = 0
KASR 160045Z 15013G18KT 32/20 A2968 RMK A01 T03240195  RH  048%=      5-min Rain = 0
KASR 160050Z 16013KT 32/20 A2969 RMK A01 T03200196  RH  049%=      5-min Rain = 0
KASR 160055Z 17013KT 32/20 A297 RMK A01 T03180197  RH  050%=      5-min Rain = 0
KASR 160100Z 17011KT 32/20 A297 RMK A01 T03160196  RH  051%=      5-min Rain = 0
KASR 160105Z 16010G15KT 31/20 A297 RMK A01 T03140196  RH  051%=      5-min Rain = 0
KASR 160110Z 16012KT 32/19 A297 RMK A01 T03150193  RH  050%=      5-min Rain = 0
KASR 160115Z 16011G16KT 32/19 A297 RMK A01 T03170191  RH  049%=      5-min Rain = 0
KASR 160120Z 16010KT 32/19 A297 RMK A01 T03170191  RH  049%=      5-min Rain = 0
KASR 160125Z 15011G17KT 32/19 A297 RMK A01 T03150192  RH  049%=      5-min Rain = 0
KASR 160130Z 15011KT 31/19 A2969 RMK A01 T03140192  RH  049%=      5-min Rain = 0
KASR 160135Z 14010KT 31/19 A2969 RMK A01 T03140192  RH  050%=      5-min Rain = 0
KASR 160140Z 14009G14KT 31/19 A297 RMK A01 T03130194  RH  051%=      5-min Rain = 0
KASR 160145Z 14009G14KT 31/20 A297 RMK A01 T03110196  RH  052%=      5-min Rain = 0
KASR 160150Z 13008KT 31/20 A2971 RMK A01 T03080199  RH  054%=      5-min Rain = 0
KASR 160155Z 14008KT 31/20 A2972 RMK A01 T03060201  RH  055%=      5-min Rain = 0
KASR 160200Z 15009KT 31/20 A2972 RMK A01 T03060202  RH  055%=      5-min Rain = 0
KASR 160205Z 15008KT 30/20 A2972 RMK A01 T03040203  RH  056%=      5-min Rain = 0
KASR 160210Z 15010KT 30/20 A2971 RMK A01 T03030204  RH  057%=      5-min Rain = 0
KASR 160215Z 15010KT 30/20 A2971 RMK A01 T03010204  RH  057%=      5-min Rain = 0
KASR 160220Z 15012KT 30/20 A297 RMK A01 T03020202  RH  057%=      5-min Rain = 0
KASR 160225Z 16012G17KT 30/20 A297 RMK A01 T03030201  RH  056%=      5-min Rain = 0
KASR 160230Z 16011G16KT 30/20 A2971 RMK A01 T03030200  RH  056%=      5-min Rain = 0
KASR 160235Z 16011G16KT 30/20 A2971 RMK A01 T03020201  RH  056%=      5-min Rain = 0
KASR 160240Z 16011KT 30/20 A2971 RMK A01 T03010201  RH  057%=      5-min Rain = 0
KASR 160245Z 16013KT 30/20 A2971 RMK A01 T03000201  RH  057%=      5-min Rain = 0
KASR 160250Z 16011KT 30/20 A2972 RMK A01 T03000201  RH  057%=      5-min Rain = 0
KASR 160255Z 18010KT 29/21 A2974 RMK A01 T02910211  RH  064%=      5-min Rain = 0.01
KASR 160300Z 19010KT 27/22 A2975 RMK A01 T02740218  RH  074%=      5-min Rain = 0.03
KASR 160305Z 21014G19KT 27/22 A2978 RMK A01 T02650220  RH  079%=      5-min Rain = 0.05
KASR 160310Z 22019G28KT 26/20 A2981 RMK A01 T02620203  RH  072%=      5-min Rain = 0.09
KASR 160315Z 24010G26KT 24/17 A2981 RMK A01 T02420173  RH  067%=      5-min Rain = 0.12
KASR 160320Z 00007G14KT 22/18 A2982 RMK A01 T02210179  RH  079%=      5-min Rain = 0.05
KASR 160325Z 33013G19KT 21/18 A2984 RMK A01 T02100176  RH  083%=      5-min Rain = 0.02
KASR 160330Z 33008G14KT 20/18 A2987 RMK A01 T02030175  RH  086%=      5-min Rain = 0.11
KASR 160335Z 29007G12KT 20/18 A2989 RMK A01 T01970177  RH  090%=      5-min Rain = 0.31
KASR 160340Z 32013KT 19/18 A2989 RMK A01 T01890175  RH  094%=      5-min Rain = 0.25
KASR 160345Z 36015G20KT 18/17 A2985 RMK A01 T01840173  RH  095%=      5-min Rain = 0.13
KASR 160350Z 04014G23KT 19/17 A2981 RMK A01 T01860172  RH  094%=      5-min Rain = 0.1
KASR 160355Z 08005KT 20/18 A2983 RMK A01 T01960175  RH  089%=      5-min Rain = 0.05
KASR 160400Z 10006G13KT 20/18 A2982 RMK A01 T01960177  RH  091%=      5-min Rain = 0.01
KASR 160405Z 11007KT 20/18 A298 RMK A01 T02020178  RH  088%=      5-min Rain = 0.01
KASR 160410Z 07006KT 20/18 A298 RMK A01 T01980178  RH  091%=      5-min Rain = 0
KASR 160415Z 08007KT 19/18 A298 RMK A01 T01940178  RH  093%=      5-min Rain = 0
KASR 160420Z 05010KT 20/18 A298 RMK A01 T01950179  RH  093%=      5-min Rain = 0
KASR 160425Z 05008KT 20/18 A298 RMK A01 T02020181  RH  090%=      5-min Rain = 0
KASR 160430Z 04008KT 21/18 A298 RMK A01 T02060183  RH  089%=      5-min Rain = 0
KASR 160435Z 04008KT 21/19 A2979 RMK A01 T02070185  RH  090%=      5-min Rain = 0
KASR 160440Z 06004KT 21/19 A2979 RMK A01 T02060186  RH  091%=      5-min Rain = 0
KASR 160445Z 08005KT 20/19 A2978 RMK A01 T02040187  RH  092%=      5-min Rain = 0
KASR 160450Z 07003KT 21/19 A2978 RMK A01 T02050187  RH  092%=      5-min Rain = 0
KASR 160455Z 35003KT 20/19 A2979 RMK A01 T02040187  RH  092%=      5-min Rain = 0

Page generated in 0.0092 seconds.